Aberdeen, WA

2:58 PM PDT on September 21, 2014 (GMT -0700)
Sanderson | Change Station
CLOSE
Current Station
Airport
Location: Shelton,
Elevation: 269 ft
Nearby Weather Stations

Elev 269 ft 47.24 °N, 123.14 °W | Updated 1 hour ago

Mostly Cloudy
Mostly Cloudy
69 °F
Feels Like 69 °F
N
17
Wind Variable Wind from SW

Today
High -- | Low -- °F
--% Chance of Precip.
Yesterday
High -- | Low -- °F
Precip. -- in
7:00 AM 7:14 PM
Waning Crescent, 5% visible
Pressure 29.87 in
Visibility 10.0 miles
Clouds Clear
Dew Point 57 °F
Humidity 65%
Rainfall 0.00 in
Snow Depth 0 in , 0 in , 0 in
UV 6 out of 12
Pollen 2.20 out of 12
PM2.5 Good
Flu Activity Not available.
METAR KSHN 212053Z AUTO 22015KT 10SM CLR 21/14 A2987 RMK AO2 SLP113 T02060139 58005 TSNO

More Conditions Fewer Conditions

Pressure 29.87 in
Visibility 10.0 miles
Clouds Clear
Dew Point 57 °F
Humidity 65%
Rainfall 0.00 in
Snow Depth 0 in , 0 in , 0 in
UV 6 out of 12
Pollen 2.20 out of 12
PM2.5 Good
Flu Activity Not available.
METAR KSHN 212053Z AUTO 22015KT 10SM CLR 21/14 A2987 RMK AO2 SLP113 T02060139 58005 TSNO

More Conditions Fewer Conditions

10-Day Weather Forecast

Almanac

Astronomy

Sep. 21, 2014 Rise Set
Actual Time 7:00 AM PDT 7:14 PM PDT
Civil Twilight 6:30 AM PDT 7:44 PM PDT
Nautical Twilight 5:54 AM PDT 8:20 PM PDT
Astronomical Twilight 5:17 AM PDT 8:57 PM PDT
Moon 4:32 AM PDT 5:58 PM PDT
Length of Visible Light 13h 14m
Length of Day
12h 13m
Tomorrow will be 3m 21s shorter.
Waning Crescent, 5% of the Moon is Illuminated
Today
Waning Crescent
Sep 24
New
Oct 1
First Quarter
Oct 8
Full
Oct 15
Last Quarter

Today's Extremes

State Highs State Lows

Community

WunderPhotos

Upload Photos

1,755,266 photos uploaded!

Nearby

Air Quality

  Air Quality AQ Index Pollutant
Yesterday Good
PM2.5
Current Good
PM2.5

Snow Depth

Station Depth Elevation
Stampede Pass 0 in 3860 ft
Sasse Ridge 0 in 4200 ft
Sentinel Butte 0 in 4920 ft
Swift Creek 0 in 3770 ft
Stevens Pass 0 in 4070 ft

Earthquake Activity

City Distance Mag. Time & Date
No recent earthquake activity has been reported nearby.
Minimum magnitude displayed is 2.5.

Coastal Water Temperatures

Place Temperature
Westport, WA 60.1 °F
Tacoma, WA 55.9 °F
Seattle, WA 55.9 °F
Astoria, OR 63.0 °F

Nearby Weather Stations